createdAt,value
2023-05-13T00:00:03.310Z,65.20
2023-05-13T00:02:35.090Z,65.20
2023-05-13T00:05:04.537Z,65.10
2023-05-13T00:07:33.586Z,65.00
2023-05-13T00:10:02.856Z,65.00
2023-05-13T00:12:32.402Z,64.90
2023-05-13T00:15:01.685Z,64.90
2023-05-13T00:17:31.067Z,64.70
2023-05-13T00:20:00.222Z,64.60
2023-05-13T00:22:29.268Z,64.50
2023-05-13T00:24:58.410Z,64.40
2023-05-13T00:27:27.451Z,64.30
2023-05-13T00:29:56.580Z,64.20
2023-05-13T00:32:26.026Z,64.10
2023-05-13T00:34:55.097Z,64.00
2023-05-13T00:37:24.196Z,63.80
2023-05-13T00:39:53.375Z,63.70
2023-05-13T00:42:22.430Z,63.50
2023-05-13T00:44:52.817Z,63.40
2023-05-13T00:47:22.506Z,63.10
2023-05-13T00:49:52.152Z,62.90
2023-05-13T00:52:21.293Z,62.50
2023-05-13T00:54:50.456Z,62.40
2023-05-13T00:57:19.681Z,62.30
2023-05-13T00:59:49.380Z,62.10
2023-05-13T01:02:30.473Z,61.70
2023-05-13T01:05:24.930Z,61.30
2023-05-13T01:08:04.004Z,61.20
2023-05-13T01:10:47.614Z,60.90
2023-05-13T01:13:30.138Z,60.70
2023-05-13T01:16:50.743Z,60.50
2023-05-13T01:19:38.440Z,60.50
2023-05-13T01:22:07.808Z,60.40
2023-05-13T01:24:38.458Z,60.20
2023-05-13T01:27:08.191Z,59.90
2023-05-13T01:29:38.734Z,59.60
2023-05-13T01:32:11.204Z,59.50
2023-05-13T01:34:41.444Z,59.60
2023-05-13T01:37:10.724Z,59.30
2023-05-13T01:39:41.928Z,59.40
2023-05-13T01:42:15.668Z,59.40
2023-05-13T01:44:45.953Z,59.30
2023-05-13T01:47:15.757Z,59.20
2023-05-13T01:49:44.767Z,59.10
2023-05-13T01:52:14.368Z,59.00
2023-05-13T01:54:43.402Z,58.70
2023-05-13T01:57:15.923Z,58.60
2023-05-13T01:59:45.138Z,58.50
2023-05-13T02:02:14.534Z,58.40
2023-05-13T02:04:43.673Z,58.40
2023-05-13T02:07:12.724Z,58.50
2023-05-13T02:09:42.545Z,58.50
2023-05-13T02:12:11.685Z,58.60
2023-05-13T02:14:40.722Z,58.80
2023-05-13T02:17:09.811Z,58.90
2023-05-13T02:19:38.936Z,58.90
2023-05-13T02:22:08.011Z,58.90
2023-05-13T02:24:40.031Z,58.90
2023-05-13T02:27:12.946Z,58.90
2023-05-13T02:29:42.415Z,58.90
2023-05-13T02:32:11.784Z,59.00
2023-05-13T02:34:41.104Z,59.10
2023-05-13T02:37:10.197Z,59.10
2023-05-13T02:39:47.383Z,59.20
2023-05-13T02:42:17.345Z,59.30
2023-05-13T02:44:46.470Z,59.30
2023-05-13T02:47:17.313Z,59.40
2023-05-13T02:49:46.734Z,59.60
2023-05-13T02:52:15.823Z,59.70
2023-05-13T02:54:45.051Z,59.80
2023-05-13T02:57:14.394Z,59.90
2023-05-13T02:59:44.767Z,60.00
2023-05-13T03:02:13.939Z,60.10
2023-05-13T03:04:43.027Z,60.20
2023-05-13T03:07:12.061Z,60.20
2023-05-13T03:09:42.362Z,60.20
2023-05-13T03:12:11.583Z,60.20
2023-05-13T03:14:40.828Z,60.30
2023-05-13T03:17:10.635Z,60.30
2023-05-13T03:19:40.016Z,60.30
2023-05-13T03:22:09.582Z,60.60
2023-05-13T03:24:38.593Z,60.70
2023-05-13T03:27:08.082Z,60.90
2023-05-13T03:29:37.261Z,60.80
2023-05-13T03:32:07.027Z,60.80
2023-05-13T03:34:37.901Z,60.70
2023-05-13T03:37:07.831Z,60.70
2023-05-13T03:39:37.162Z,60.70
2023-05-13T03:42:06.666Z,60.70
2023-05-13T03:44:36.061Z,60.70
2023-05-13T03:47:05.616Z,60.80
2023-05-13T03:49:34.728Z,60.80
2023-05-13T03:52:04.218Z,60.80
2023-05-13T03:54:34.025Z,60.70
2023-05-13T03:57:03.854Z,60.60
2023-05-13T03:59:32.940Z,60.60
2023-05-13T04:02:02.235Z,60.60
2023-05-13T04:04:32.760Z,60.50
2023-05-13T04:07:01.871Z,60.60
2023-05-13T04:09:30.949Z,60.90
2023-05-13T04:12:00.031Z,61.00
2023-05-13T04:14:29.051Z,60.80
2023-05-13T04:16:58.166Z,60.70
2023-05-13T04:19:27.182Z,60.50
2023-05-13T04:21:56.372Z,60.50
2023-05-13T04:24:25.599Z,60.30
2023-05-13T04:26:54.703Z,60.20
2023-05-13T04:29:23.946Z,60.10
2023-05-13T04:31:53.353Z,59.90
2023-05-13T04:34:22.469Z,59.60
2023-05-13T04:36:51.621Z,59.50
2023-05-13T04:39:20.674Z,59.50
2023-05-13T04:41:49.790Z,59.50
2023-05-13T04:44:19.084Z,59.40
2023-05-13T04:46:48.394Z,59.30
2023-05-13T04:49:17.514Z,59.10
2023-05-13T04:51:46.882Z,58.90
2023-05-13T04:54:16.898Z,58.80
2023-05-13T04:56:47.366Z,58.70
2023-05-13T04:59:16.467Z,58.50
2023-05-13T05:01:45.650Z,58.50
2023-05-13T05:04:15.144Z,58.40
2023-05-13T05:06:45.168Z,58.40
2023-05-13T05:09:14.588Z,58.20
2023-05-13T05:11:43.659Z,58.20
2023-05-13T05:14:12.755Z,58.10
2023-05-13T05:16:41.815Z,58.10
2023-05-13T05:19:11.754Z,58.00
2023-05-13T05:21:41.556Z,57.80
2023-05-13T05:24:11.605Z,57.70
2023-05-13T05:26:42.705Z,57.60
2023-05-13T05:29:12.268Z,57.40
2023-05-13T05:31:41.520Z,57.30
2023-05-13T05:34:12.460Z,57.20
2023-05-13T05:36:41.635Z,57.00
2023-05-13T05:39:11.152Z,56.70
2023-05-13T05:41:40.345Z,56.40
2023-05-13T05:44:09.492Z,56.80
2023-05-13T05:46:38.599Z,55.80
2023-05-13T05:49:09.242Z,55.50
2023-05-13T05:51:39.256Z,55.20
2023-05-13T05:54:10.317Z,54.90
2023-05-13T05:56:40.277Z,54.40
2023-05-13T05:59:09.426Z,54.00
2023-05-13T06:01:38.672Z,53.50
2023-05-13T06:04:07.893Z,53.20
2023-05-13T06:06:37.428Z,52.80
2023-05-13T06:09:07.809Z,52.40
2023-05-13T06:11:36.944Z,52.10
2023-05-13T06:14:06.178Z,51.90
2023-05-13T06:16:35.525Z,51.60
2023-05-13T06:19:04.678Z,51.30
2023-05-13T06:21:34.725Z,51.00
2023-05-13T06:24:04.280Z,50.70
2023-05-13T06:26:33.328Z,50.40
2023-05-13T06:29:02.470Z,50.20
2023-05-13T06:31:31.657Z,49.70
2023-05-13T06:34:00.728Z,49.60
2023-05-13T06:36:29.790Z,49.40
2023-05-13T06:39:00.304Z,48.90
2023-05-13T06:41:29.570Z,48.50
2023-05-13T06:44:05.385Z,48.40
2023-05-13T06:46:35.019Z,48.10
2023-05-13T06:50:29.230Z,47.60
2023-05-13T06:52:58.711Z,46.40
2023-05-13T06:55:28.029Z,46.00
2023-05-13T06:57:57.252Z,45.40
2023-05-13T07:00:26.479Z,44.80
2023-05-13T07:02:55.657Z,44.20
2023-05-13T07:05:24.863Z,43.50
2023-05-13T07:07:54.058Z,42.90
2023-05-13T07:10:23.453Z,42.20
2023-05-13T07:12:52.766Z,41.80
2023-05-13T07:15:22.232Z,41.60
2023-05-13T07:17:51.603Z,41.40
2023-05-13T07:20:22.793Z,41.30
2023-05-13T07:22:52.203Z,41.30
2023-05-13T07:25:21.355Z,41.20
2023-05-13T07:27:50.394Z,41.10
2023-05-13T07:30:19.649Z,41.00
2023-05-13T07:32:48.804Z,41.00
2023-05-13T07:35:18.045Z,40.80
2023-05-13T07:37:47.562Z,40.70
2023-05-13T07:40:17.964Z,40.60
2023-05-13T07:42:47.061Z,40.80
2023-05-13T07:45:16.130Z,40.80
2023-05-13T07:47:45.307Z,40.60
2023-05-13T07:50:14.483Z,40.60
2023-05-13T07:52:43.688Z,40.80
2023-05-13T07:55:12.774Z,40.80
2023-05-13T07:57:41.858Z,40.50
2023-05-13T08:00:11.275Z,40.20
2023-05-13T08:02:43.967Z,40.10
2023-05-13T08:05:13.279Z,40.10
2023-05-13T08:07:42.360Z,40.00
2023-05-13T08:10:11.419Z,39.80
2023-05-13T08:12:40.789Z,39.80
2023-05-13T08:15:12.041Z,39.70
2023-05-13T08:17:41.117Z,39.50
2023-05-13T08:20:11.537Z,39.60
2023-05-13T08:22:40.995Z,39.40
2023-05-13T08:25:12.653Z,39.20
2023-05-13T08:27:41.775Z,39.10
2023-05-13T08:30:11.162Z,39.10
2023-05-13T08:32:40.533Z,39.30
2023-05-13T08:35:10.044Z,39.20
2023-05-13T08:37:39.782Z,39.10
2023-05-13T08:40:11.043Z,39.00
2023-05-13T08:42:41.134Z,38.80
2023-05-13T08:45:11.575Z,38.60
2023-05-13T08:47:58.418Z,38.40
2023-05-13T08:50:31.421Z,38.20
2023-05-13T08:53:00.581Z,38.10
2023-05-13T08:55:29.604Z,38.10
2023-05-13T08:57:58.969Z,38.00
2023-05-13T09:00:28.077Z,37.80
2023-05-13T09:02:57.162Z,37.60
2023-05-13T09:05:27.162Z,36.90
2023-05-13T09:07:57.334Z,36.90
2023-05-13T09:10:26.442Z,36.90
2023-05-13T09:12:55.866Z,37.00
2023-05-13T09:15:26.860Z,36.70
2023-05-13T09:18:00.126Z,36.30
2023-05-13T09:20:30.145Z,36.30
2023-05-13T09:22:59.200Z,36.00
2023-05-13T09:25:28.750Z,35.80
2023-05-13T09:28:03.141Z,35.60
2023-05-13T09:30:40.694Z,35.80
2023-05-13T09:33:19.916Z,35.70
2023-05-13T09:35:52.949Z,35.60
2023-05-13T09:38:32.193Z,35.60
2023-05-13T09:41:02.913Z,35.60
2023-05-13T09:43:33.130Z,35.60
2023-05-13T09:46:04.102Z,35.60
2023-05-13T09:48:34.764Z,35.60
2023-05-13T09:51:04.193Z,35.50
2023-05-13T09:53:33.288Z,35.60
2023-05-13T09:56:02.380Z,35.30
2023-05-13T09:58:31.604Z,35.30
2023-05-13T10:01:01.874Z,35.60
2023-05-13T10:03:31.942Z,35.90
2023-05-13T10:06:03.379Z,35.80
2023-05-13T10:08:33.570Z,35.70
2023-05-13T10:11:03.214Z,35.60
2023-05-13T10:13:33.226Z,35.50
2023-05-13T10:16:02.896Z,35.90
2023-05-13T10:18:32.226Z,36.10
2023-05-13T10:21:03.569Z,36.40
2023-05-13T10:23:34.055Z,36.40
2023-05-13T10:26:03.307Z,36.50
2023-05-13T10:28:32.777Z,36.30
2023-05-13T10:31:01.882Z,36.30
2023-05-13T10:33:31.253Z,36.30
2023-05-13T10:36:06.261Z,36.10
2023-05-13T10:39:13.244Z,36.00
2023-05-13T10:41:51.161Z,35.70
2023-05-13T10:44:20.808Z,35.70
2023-05-13T10:46:50.380Z,35.90
2023-05-13T10:49:24.720Z,35.60
2023-05-13T10:51:54.271Z,35.50
2023-05-13T10:54:26.913Z,35.30
2023-05-13T10:56:57.678Z,35.00
2023-05-13T10:59:30.604Z,34.80
2023-05-13T11:02:01.862Z,34.90
2023-05-13T11:04:31.304Z,34.70
2023-05-13T11:07:16.567Z,34.70
2023-05-13T11:09:51.642Z,34.70
2023-05-13T11:12:20.918Z,35.00
2023-05-13T11:14:50.082Z,35.20
2023-05-13T11:17:20.725Z,35.30
2023-05-13T11:19:51.510Z,35.20
2023-05-13T11:22:22.737Z,35.20
2023-05-13T11:25:05.578Z,34.90
2023-05-13T11:27:39.881Z,34.90
2023-05-13T11:30:25.859Z,34.70
2023-05-13T11:32:57.202Z,34.60
2023-05-13T11:35:26.834Z,34.40
2023-05-13T11:37:59.900Z,34.70
2023-05-13T11:40:38.345Z,34.60
2023-05-13T11:43:08.135Z,35.00
2023-05-13T11:45:39.313Z,35.00
2023-05-13T11:48:19.433Z,34.70
2023-05-13T11:50:50.657Z,34.40
2023-05-13T11:53:22.279Z,34.50
2023-05-13T11:55:51.806Z,34.80
2023-05-13T11:58:21.504Z,34.90
2023-05-13T12:00:52.055Z,34.70
2023-05-13T12:03:21.248Z,34.60
2023-05-13T12:05:51.451Z,34.70
2023-05-13T12:08:23.631Z,34.70
2023-05-13T12:10:53.233Z,34.70
2023-05-13T12:13:22.723Z,34.30
2023-05-13T12:15:52.016Z,34.30
2023-05-13T12:18:21.199Z,35.00
2023-05-13T12:20:51.585Z,35.60
2023-05-13T12:23:20.644Z,36.30
2023-05-13T12:25:51.404Z,37.00
2023-05-13T12:28:23.226Z,37.50
2023-05-13T12:31:00.394Z,37.30
2023-05-13T12:33:41.802Z,36.90
2023-05-13T12:36:21.632Z,36.60
2023-05-13T12:38:57.512Z,36.10
2023-05-13T12:41:36.056Z,32.90
2023-05-13T12:44:10.005Z,31.80
2023-05-13T12:46:40.336Z,31.10
2023-05-13T12:49:09.541Z,31.30
2023-05-13T12:51:38.685Z,31.60
2023-05-13T12:54:07.788Z,31.80
2023-05-13T12:56:36.873Z,31.60
2023-05-13T12:59:05.988Z,31.90
2023-05-13T13:01:36.138Z,32.20
2023-05-13T13:04:05.328Z,32.50
2023-05-13T13:06:34.454Z,32.90
2023-05-13T13:09:03.611Z,33.70
2023-05-13T13:11:32.787Z,34.30
2023-05-13T13:14:01.899Z,34.90
2023-05-13T13:16:31.896Z,35.10
2023-05-13T13:19:01.978Z,35.30
2023-05-13T13:21:32.191Z,35.40
2023-05-13T13:24:01.342Z,35.90
2023-05-13T13:26:30.572Z,36.60
2023-05-13T13:28:59.596Z,36.90
2023-05-13T13:31:28.878Z,37.40
2023-05-13T13:34:04.163Z,37.90
2023-05-13T13:36:33.322Z,38.10
2023-05-13T13:39:02.426Z,38.20
2023-05-13T13:41:31.614Z,37.90
2023-05-13T13:44:00.692Z,37.40
2023-05-13T13:46:29.898Z,37.20
2023-05-13T13:48:59.012Z,36.80
2023-05-13T13:51:28.079Z,36.20
2023-05-13T13:53:57.054Z,36.10
2023-05-13T13:56:26.155Z,36.30
2023-05-13T13:58:55.292Z,36.50
2023-05-13T14:01:24.448Z,36.70
2023-05-13T14:04:09.514Z,36.70
2023-05-13T14:06:38.609Z,36.50
2023-05-13T14:09:08.599Z,36.50
2023-05-13T14:11:37.931Z,36.80
2023-05-13T14:14:07.122Z,37.00
2023-05-13T14:16:36.462Z,37.10
2023-05-13T14:19:05.569Z,37.40
2023-05-13T14:21:35.067Z,37.80
2023-05-13T14:24:04.253Z,38.30
2023-05-13T14:26:33.386Z,38.90
2023-05-13T14:29:02.461Z,39.20
2023-05-13T14:31:31.564Z,39.60
2023-05-13T14:34:00.750Z,39.90
2023-05-13T14:36:29.811Z,39.80
2023-05-13T14:38:58.983Z,39.70
2023-05-13T14:41:29.526Z,39.80
2023-05-13T14:43:59.144Z,40.10
2023-05-13T14:46:28.350Z,40.10
2023-05-13T14:48:57.431Z,40.10
2023-05-13T14:51:26.535Z,39.90
2023-05-13T14:53:55.593Z,39.60
2023-05-13T14:56:25.274Z,39.40
2023-05-13T14:58:54.415Z,39.10
2023-05-13T15:01:23.538Z,39.00
2023-05-13T15:03:52.693Z,39.00
2023-05-13T15:06:22.459Z,38.80
2023-05-13T15:08:51.537Z,38.80
2023-05-13T15:11:21.068Z,39.40
2023-05-13T15:13:50.244Z,38.90
2023-05-13T15:16:19.328Z,39.10
2023-05-13T15:18:49.790Z,38.90
2023-05-13T15:21:18.967Z,38.50
2023-05-13T15:23:48.167Z,38.00
2023-05-13T15:26:17.344Z,37.80
2023-05-13T15:28:46.499Z,38.00
2023-05-13T15:31:15.681Z,38.60
2023-05-13T15:33:45.361Z,39.00
2023-05-13T15:36:14.531Z,39.40
2023-05-13T15:38:43.827Z,39.80
2023-05-13T15:41:12.894Z,40.00
2023-05-13T15:43:43.077Z,40.20
2023-05-13T15:46:12.235Z,40.50
2023-05-13T15:48:41.333Z,41.00
2023-05-13T15:51:10.491Z,41.30
2023-05-13T15:53:39.809Z,42.00
2023-05-13T15:56:08.998Z,42.80
2023-05-13T15:58:38.121Z,43.20
2023-05-13T16:01:07.280Z,43.70
2023-05-13T16:03:38.560Z,44.00
2023-05-13T16:06:07.907Z,44.10
2023-05-13T16:08:36.976Z,44.30
2023-05-13T16:11:06.141Z,44.60
2023-05-13T16:13:35.268Z,44.70
2023-05-13T16:16:04.763Z,44.90
2023-05-13T16:18:33.833Z,45.20
2023-05-13T16:21:03.083Z,45.50
2023-05-13T16:23:32.192Z,45.80
2023-05-13T16:26:01.256Z,46.20
2023-05-13T16:28:30.361Z,46.60
2023-05-13T16:30:59.409Z,46.90
2023-05-13T16:33:28.555Z,47.00
2023-05-13T16:35:57.585Z,47.10
2023-05-13T16:38:26.685Z,47.00
2023-05-13T16:40:55.963Z,47.10
2023-05-13T16:43:25.044Z,47.30
2023-05-13T16:45:54.090Z,47.40
2023-05-13T16:48:23.227Z,47.60
2023-05-13T16:50:52.389Z,47.80
2023-05-13T16:53:22.362Z,47.90
2023-05-13T16:55:51.457Z,48.20
2023-05-13T16:58:20.556Z,48.40
2023-05-13T17:00:49.698Z,48.70
2023-05-13T17:03:19.040Z,48.90
2023-05-13T17:05:48.251Z,49.10
2023-05-13T17:08:19.008Z,49.40
2023-05-13T17:10:48.083Z,49.50
2023-05-13T17:13:17.130Z,49.70
2023-05-13T17:15:47.148Z,49.90
2023-05-13T17:18:16.371Z,50.10
2023-05-13T17:20:46.275Z,50.30
2023-05-13T17:23:17.342Z,50.60
2023-05-13T17:25:46.531Z,50.70
2023-05-13T17:28:15.597Z,50.80
2023-05-13T17:30:44.774Z,50.90
2023-05-13T17:33:13.941Z,51.20
2023-05-13T17:35:43.099Z,51.30
2023-05-13T17:38:12.144Z,51.50
2023-05-13T17:40:41.356Z,51.70
2023-05-13T17:43:10.587Z,51.80
2023-05-13T17:45:41.757Z,52.00
2023-05-13T17:48:11.692Z,52.20
2023-05-13T17:50:40.803Z,52.30
2023-05-13T17:53:09.912Z,52.50
2023-05-13T17:55:39.027Z,52.60
2023-05-13T17:58:08.092Z,52.90
2023-05-13T18:00:37.129Z,52.90
2023-05-13T18:03:06.432Z,53.10
2023-05-13T18:05:35.793Z,53.30
2023-05-13T18:08:05.150Z,53.40
2023-05-13T18:10:34.251Z,53.50
2023-05-13T18:13:03.494Z,53.60
2023-05-13T18:15:32.660Z,53.70
2023-05-13T18:18:03.622Z,53.80
2023-05-13T18:20:33.718Z,54.00
2023-05-13T18:23:02.844Z,54.10
2023-05-13T18:25:33.564Z,54.20
2023-05-13T18:28:03.983Z,54.20
2023-05-13T18:30:33.123Z,54.30
2023-05-13T18:33:02.183Z,54.30
2023-05-13T18:35:31.368Z,54.40
2023-05-13T18:38:00.432Z,54.30
2023-05-13T18:40:29.553Z,54.30
2023-05-13T18:42:58.587Z,54.20
2023-05-13T18:45:27.684Z,54.30
2023-05-13T18:47:56.757Z,54.40
2023-05-13T18:50:26.118Z,54.40
2023-05-13T18:52:55.299Z,55.00
2023-05-13T18:55:24.374Z,54.40
2023-05-13T18:57:53.407Z,54.40
2023-05-13T19:00:22.938Z,54.40
2023-05-13T19:02:52.421Z,54.40
2023-05-13T19:05:21.824Z,54.40
2023-05-13T19:07:51.072Z,54.40
2023-05-13T19:10:20.424Z,54.40
2023-05-13T19:12:49.708Z,54.40
2023-05-13T19:15:21.266Z,54.50
2023-05-13T19:17:51.631Z,54.50
2023-05-13T19:20:21.035Z,54.60
2023-05-13T19:22:50.383Z,54.80
2023-05-13T19:25:20.548Z,54.70
2023-05-13T19:27:49.940Z,54.70
2023-05-13T19:30:19.118Z,54.80
2023-05-13T19:32:49.166Z,54.80
2023-05-13T19:35:18.295Z,54.90
2023-05-13T19:37:47.301Z,54.90
2023-05-13T19:40:16.449Z,55.00
2023-05-13T19:42:45.602Z,55.10
2023-05-13T19:45:15.034Z,55.10
2023-05-13T19:47:44.304Z,55.20
2023-05-13T19:50:14.364Z,55.20
2023-05-13T19:52:43.888Z,55.20
2023-05-13T19:55:13.381Z,55.30
2023-05-13T19:57:42.795Z,55.20
2023-05-13T20:00:12.894Z,55.20
2023-05-13T20:02:42.204Z,55.20
2023-05-13T20:05:11.325Z,55.30
2023-05-13T20:07:40.368Z,55.40
2023-05-13T20:10:10.541Z,55.50
2023-05-13T20:12:39.833Z,55.60
2023-05-13T20:15:10.340Z,55.60
2023-05-13T20:17:39.716Z,55.70
2023-05-13T20:20:09.152Z,55.80
2023-05-13T20:22:38.263Z,55.80
2023-05-13T20:25:07.574Z,55.90
2023-05-13T20:27:36.676Z,55.90
2023-05-13T20:30:07.290Z,56.00
2023-05-13T20:32:36.457Z,56.10
2023-05-13T20:35:07.703Z,56.20
2023-05-13T20:37:36.870Z,56.20
2023-05-13T20:40:06.807Z,56.20
2023-05-13T20:42:36.089Z,56.20
2023-05-13T20:45:08.786Z,56.20
2023-05-13T20:47:37.904Z,56.40
2023-05-13T20:50:07.889Z,56.40
2023-05-13T20:52:37.264Z,56.60
2023-05-13T20:55:06.828Z,56.70
2023-05-13T20:57:35.930Z,56.80
2023-05-13T21:00:05.761Z,57.00
2023-05-13T21:02:36.392Z,57.00
2023-05-13T21:05:06.281Z,57.20
2023-05-13T21:07:35.544Z,57.20
2023-05-13T21:10:05.180Z,57.20
2023-05-13T21:12:34.274Z,57.30
2023-05-13T21:15:03.529Z,57.30
2023-05-13T21:17:33.114Z,57.40
2023-05-13T21:20:02.225Z,57.60
2023-05-13T21:22:33.044Z,57.70
2023-05-13T21:25:02.075Z,57.80
2023-05-13T21:27:32.516Z,57.90
2023-05-13T21:30:01.796Z,57.90
2023-05-13T21:32:33.192Z,57.90
2023-05-13T21:35:02.276Z,57.90
2023-05-13T21:37:32.462Z,58.00
2023-05-13T21:40:01.561Z,58.00
2023-05-13T21:42:30.818Z,58.10
2023-05-13T21:44:59.989Z,58.20
2023-05-13T21:47:29.655Z,58.30
2023-05-13T21:49:58.930Z,58.60
2023-05-13T21:52:28.041Z,58.70
2023-05-13T21:54:57.101Z,59.00
2023-05-13T21:57:26.216Z,59.30
2023-05-13T21:59:55.303Z,59.60
2023-05-13T22:02:24.475Z,59.90
2023-05-13T22:04:53.702Z,60.30
2023-05-13T22:07:22.736Z,60.50
2023-05-13T22:09:51.761Z,60.80
2023-05-13T22:12:21.188Z,61.00
2023-05-13T22:14:50.284Z,61.20
2023-05-13T22:17:19.421Z,61.50
2023-05-13T22:19:48.966Z,61.70
2023-05-13T22:22:18.208Z,62.00
2023-05-13T22:24:47.258Z,62.30
2023-05-13T22:27:16.822Z,62.60
2023-05-13T22:29:45.871Z,62.90
2023-05-13T22:32:15.049Z,63.20
2023-05-13T22:34:44.302Z,63.40
2023-05-13T22:37:13.362Z,63.70
2023-05-13T22:39:42.406Z,64.00
2023-05-13T22:42:11.516Z,64.40
2023-05-13T22:44:40.661Z,64.70
2023-05-13T22:47:09.741Z,64.90
2023-05-13T22:49:39.040Z,65.20
2023-05-13T22:52:08.245Z,65.50
2023-05-13T22:54:37.241Z,65.60
2023-05-13T22:57:06.322Z,65.70
2023-05-13T22:59:35.583Z,66.00
2023-05-13T23:02:04.898Z,66.10
2023-05-13T23:04:34.133Z,66.20
2023-05-13T23:07:03.383Z,66.10
2023-05-13T23:09:32.454Z,66.00
2023-05-13T23:12:01.519Z,65.80
2023-05-13T23:14:30.623Z,65.80
2023-05-13T23:16:59.632Z,65.70
2023-05-13T23:19:29.486Z,65.80
2023-05-13T23:21:58.862Z,66.00
2023-05-13T23:24:27.922Z,66.40
2023-05-13T23:26:57.009Z,66.70
2023-05-13T23:29:27.733Z,67.10
2023-05-13T23:31:57.026Z,67.30
2023-05-13T23:34:26.126Z,67.50
2023-05-13T23:36:55.677Z,67.50
2023-05-13T23:39:24.808Z,67.60
2023-05-13T23:41:53.922Z,67.60
2023-05-13T23:44:23.131Z,67.60
2023-05-13T23:46:52.177Z,67.60
2023-05-13T23:49:21.212Z,67.70
2023-05-13T23:51:50.271Z,67.80
2023-05-13T23:54:19.733Z,67.80
2023-05-13T23:56:48.773Z,67.90
2023-05-13T23:59:17.914Z,68.10
